createdAt,value
2022-11-10T01:23:34.643Z,99192.00
2022-11-10T01:26:08.392Z,99184.00
2022-11-10T01:28:39.061Z,99195.00
2022-11-10T01:31:15.870Z,99200.00
2022-11-10T01:33:45.805Z,99191.00
2022-11-10T01:36:15.677Z,99201.00
2022-11-10T01:38:45.441Z,99202.00
2022-11-10T01:41:15.816Z,99203.00
2022-11-10T01:43:44.942Z,99204.00
2022-11-10T01:46:15.354Z,99206.00
2022-11-10T01:48:56.843Z,99203.00
2022-11-10T01:51:48.648Z,99210.00
2022-11-10T01:54:26.379Z,99215.00
2022-11-10T01:57:03.756Z,99211.00
2022-11-10T01:59:39.628Z,99212.00
2022-11-10T02:02:30.517Z,99216.00
2022-11-10T02:05:02.998Z,99209.00
2022-11-10T02:07:33.752Z,99201.00
2022-11-10T02:10:14.988Z,99199.00
2022-11-10T02:12:44.920Z,99200.00
2022-11-10T02:15:18.522Z,99199.00
2022-11-10T02:17:51.197Z,99210.00
2022-11-10T02:20:22.887Z,99204.00
2022-11-10T02:22:52.015Z,99209.00
2022-11-10T02:25:24.298Z,99209.00
2022-11-10T02:27:53.337Z,99211.00
2022-11-10T02:30:27.340Z,99212.00
2022-11-10T02:32:56.871Z,99210.00
2022-11-10T02:35:25.924Z,99218.00
2022-11-10T02:37:54.996Z,99212.00
2022-11-10T02:40:24.179Z,99212.00
2022-11-10T02:42:53.355Z,99203.00
2022-11-10T02:45:22.585Z,99206.00
2022-11-10T02:47:51.759Z,99208.00
2022-11-10T02:50:20.825Z,99205.00
2022-11-10T02:52:49.892Z,99203.00
2022-11-10T02:55:19.055Z,99203.00
2022-11-10T02:57:48.096Z,99201.00
2022-11-10T03:00:17.327Z,99194.00
2022-11-10T03:02:46.629Z,99186.00
2022-11-10T03:05:15.745Z,99193.00
2022-11-10T03:07:44.808Z,99189.00
2022-11-10T03:10:13.879Z,99187.00
2022-11-10T03:12:43.375Z,99186.00
2022-11-10T03:15:13.882Z,99180.00
2022-11-10T03:17:44.068Z,99183.00
2022-11-10T03:20:13.344Z,99179.00
2022-11-10T03:22:42.493Z,99173.00
2022-11-10T03:25:12.800Z,99178.00
2022-11-10T03:27:42.274Z,99168.00
2022-11-10T03:30:12.451Z,99170.00
2022-11-10T03:32:41.535Z,99151.00
2022-11-10T03:35:11.850Z,99156.00
2022-11-10T03:37:43.551Z,99153.00
2022-11-10T03:40:13.422Z,99150.00
2022-11-10T03:42:47.556Z,99143.00
2022-11-10T03:45:17.580Z,99138.00
2022-11-10T03:47:51.471Z,99139.00
2022-11-10T03:50:20.837Z,99126.00
2022-11-10T03:52:50.268Z,99127.00
2022-11-10T03:55:21.906Z,99124.00
2022-11-10T03:57:50.918Z,99125.00
2022-11-10T04:00:21.059Z,99114.00
2022-11-10T04:02:50.143Z,99117.00
2022-11-10T04:05:57.604Z,99109.00
2022-11-10T04:08:45.237Z,99106.00
2022-11-10T04:11:14.336Z,99108.00
2022-11-10T04:14:02.065Z,99105.00
2022-11-10T04:16:31.151Z,99099.00
2022-11-10T04:19:00.190Z,99087.00
2022-11-10T04:21:29.289Z,99087.00
2022-11-10T04:24:00.184Z,99082.00
2022-11-10T04:26:32.899Z,99087.00
2022-11-10T04:29:05.344Z,99069.00
2022-11-10T04:31:38.402Z,99069.00
2022-11-10T04:34:17.487Z,99061.00
2022-11-10T04:36:48.087Z,99061.00
2022-11-10T04:39:17.291Z,99053.00
2022-11-10T04:41:46.468Z,99049.00
2022-11-10T04:44:15.570Z,99047.00
2022-11-10T04:46:45.562Z,99039.00
2022-11-10T04:49:14.781Z,99040.00
2022-11-10T04:51:44.024Z,99027.00
2022-11-10T04:54:14.212Z,99025.00
2022-11-10T04:56:43.550Z,99013.00
2022-11-10T04:59:12.718Z,99011.00
2022-11-10T05:01:41.904Z,99006.00
2022-11-10T05:04:11.058Z,99005.00
2022-11-10T05:06:40.220Z,98995.00
2022-11-10T05:09:09.479Z,98990.00
2022-11-10T05:11:38.650Z,98994.00
2022-11-10T05:14:07.941Z,98984.00
2022-11-10T05:16:38.523Z,98976.00
2022-11-10T05:19:07.744Z,98969.00
2022-11-10T05:21:36.906Z,98969.00
2022-11-10T05:24:07.082Z,98971.00
2022-11-10T05:26:36.174Z,98961.00
2022-11-10T05:29:05.267Z,98956.00
2022-11-10T05:31:34.376Z,98953.00
2022-11-10T05:34:03.531Z,98946.00
2022-11-10T05:36:32.691Z,98946.00
2022-11-10T05:39:01.762Z,98940.00
2022-11-10T05:41:30.840Z,98939.00
2022-11-10T05:43:59.918Z,98933.00
2022-11-10T05:46:29.044Z,98924.00
2022-11-10T05:48:58.085Z,98918.00
2022-11-10T05:51:27.354Z,98920.00
2022-11-10T05:53:56.392Z,98907.00
2022-11-10T05:56:25.435Z,98910.00
2022-11-10T05:58:54.527Z,98910.00
2022-11-10T06:01:23.588Z,98902.00
2022-11-10T06:03:52.724Z,98903.00
2022-11-10T06:06:24.074Z,98897.00
2022-11-10T06:08:53.225Z,98892.00
2022-11-10T06:11:22.300Z,98886.00
2022-11-10T06:13:51.844Z,98885.00
2022-11-10T06:16:20.875Z,98882.00
2022-11-10T06:18:49.911Z,98881.00
2022-11-10T06:21:19.014Z,98871.00
2022-11-10T06:23:48.913Z,98872.00
2022-11-10T06:26:18.357Z,98866.00
2022-11-10T06:28:47.395Z,98863.00
2022-11-10T06:31:16.447Z,98861.00
2022-11-10T06:33:45.700Z,98865.00
2022-11-10T06:36:14.753Z,98851.00
2022-11-10T06:38:43.815Z,98851.00
2022-11-10T06:41:12.902Z,98848.00
2022-11-10T06:43:42.011Z,98846.00
2022-11-10T06:46:11.089Z,98836.00
2022-11-10T06:48:41.227Z,98839.00
2022-11-10T06:51:10.330Z,98834.00
2022-11-10T06:53:39.426Z,98832.00
2022-11-10T06:56:09.571Z,98821.00
2022-11-10T06:58:38.938Z,98818.00
2022-11-10T07:01:08.146Z,98812.00
2022-11-10T07:03:44.420Z,98814.00
2022-11-10T07:06:23.640Z,98811.00
2022-11-10T07:08:52.792Z,98801.00
2022-11-10T07:11:24.812Z,98801.00
2022-11-10T07:13:54.019Z,98796.00
2022-11-10T07:16:24.588Z,98791.00
2022-11-10T07:18:53.931Z,98786.00
2022-11-10T07:21:23.918Z,98777.00
2022-11-10T07:23:53.437Z,98784.00
2022-11-10T07:26:23.016Z,98780.00
2022-11-10T07:28:52.156Z,98783.00
2022-11-10T07:31:21.131Z,98778.00
2022-11-10T07:33:54.404Z,98774.00
2022-11-10T07:36:23.817Z,98781.00
2022-11-10T07:38:53.537Z,98779.00
2022-11-10T07:41:22.806Z,98778.00
2022-11-10T07:43:51.856Z,98771.00
2022-11-10T07:46:20.996Z,98775.00
2022-11-10T07:48:50.341Z,98770.00
2022-11-10T07:51:19.457Z,98754.00
2022-11-10T07:53:48.582Z,98764.00
2022-11-10T07:56:17.713Z,98757.00
2022-11-10T07:58:49.234Z,98755.00
2022-11-10T08:01:18.447Z,98759.00
2022-11-10T08:03:47.853Z,98753.00
2022-11-10T08:06:16.961Z,98758.00
2022-11-10T08:08:48.914Z,98756.00
2022-11-10T08:11:18.017Z,98756.00
2022-11-10T08:13:47.033Z,98761.00
2022-11-10T08:16:16.221Z,98754.00
2022-11-10T08:18:45.182Z,98754.00
2022-11-10T08:21:14.272Z,98745.00
2022-11-10T08:23:43.370Z,98748.00
2022-11-10T08:26:12.959Z,98751.00
2022-11-10T08:28:42.059Z,98757.00
2022-11-10T08:31:11.295Z,98760.00
2022-11-10T08:33:40.490Z,98757.00
2022-11-10T08:36:10.328Z,98760.00
2022-11-10T08:38:39.490Z,98758.00
2022-11-10T08:41:08.710Z,98761.00
2022-11-10T08:43:37.899Z,98757.00
2022-11-10T08:46:07.113Z,98750.00
2022-11-10T08:48:36.241Z,98748.00
2022-11-10T08:51:05.708Z,98747.00
2022-11-10T08:53:34.839Z,98744.00
2022-11-10T08:56:03.902Z,98742.00
2022-11-10T08:58:33.075Z,98739.00
2022-11-10T09:01:02.212Z,98741.00
2022-11-10T09:03:31.324Z,98741.00
2022-11-10T09:06:00.435Z,98739.00
2022-11-10T09:08:29.512Z,98740.00
2022-11-10T09:10:58.685Z,98741.00
2022-11-10T09:13:30.114Z,98741.00
2022-11-10T09:16:06.764Z,98744.00
2022-11-10T09:18:35.896Z,98747.00
2022-11-10T09:21:12.702Z,98740.00
2022-11-10T09:23:42.240Z,98745.00
2022-11-10T09:26:11.337Z,98740.00
2022-11-10T09:28:40.438Z,98742.00
2022-11-10T09:31:10.206Z,98741.00
2022-11-10T09:33:39.297Z,98737.00
2022-11-10T09:36:08.732Z,98742.00
2022-11-10T09:38:38.035Z,98741.00
2022-11-10T09:41:15.633Z,98736.00
2022-11-10T09:44:12.341Z,98743.00
2022-11-10T09:46:51.683Z,98738.00
2022-11-10T09:49:35.180Z,98747.00
2022-11-10T09:52:06.521Z,98748.00
2022-11-10T09:55:02.115Z,98750.00
2022-11-10T09:57:32.327Z,98746.00
2022-11-10T10:00:01.731Z,98742.00
2022-11-10T10:02:49.186Z,98744.00
2022-11-10T10:05:48.434Z,98748.00
2022-11-10T10:08:35.847Z,98749.00
2022-11-10T10:11:38.224Z,98751.00
2022-11-10T10:14:28.557Z,98754.00
2022-11-10T10:17:10.393Z,98754.00
2022-11-10T10:20:27.002Z,98768.00
2022-11-10T10:23:40.683Z,98762.00
2022-11-10T10:26:21.405Z,98766.00
2022-11-10T10:28:52.777Z,98771.00
2022-11-10T10:31:29.368Z,98773.00
2022-11-10T10:33:58.554Z,98782.00
2022-11-10T10:36:32.827Z,98780.00
2022-11-10T10:39:31.313Z,98784.00
2022-11-10T10:42:00.718Z,98791.00
2022-11-10T10:44:29.938Z,98794.00
2022-11-10T10:47:02.553Z,98802.00
2022-11-10T10:49:37.269Z,98813.00
2022-11-10T10:52:17.083Z,98807.00
2022-11-10T10:54:46.201Z,98805.00
2022-11-10T10:57:32.263Z,98812.00
2022-11-10T11:00:21.744Z,98817.00
2022-11-10T11:03:59.907Z,98812.00
2022-11-10T11:06:34.968Z,98822.00
2022-11-10T11:09:24.178Z,98814.00
2022-11-10T11:12:08.283Z,98824.00
2022-11-10T11:14:40.682Z,98815.00
2022-11-10T11:17:24.533Z,98823.00
2022-11-10T11:19:59.614Z,98818.00
2022-11-10T11:23:00.555Z,98833.00
2022-11-10T11:25:37.602Z,98834.00
2022-11-10T11:28:30.722Z,98843.00
2022-11-10T11:31:43.173Z,98840.00
2022-11-10T11:34:42.254Z,98839.00
2022-11-10T11:37:20.335Z,98841.00
2022-11-10T11:40:06.738Z,98845.00
2022-11-10T11:42:57.560Z,98848.00
2022-11-10T11:45:46.293Z,98845.00
2022-11-10T11:48:40.802Z,98847.00
2022-11-10T11:51:54.243Z,98849.00
2022-11-10T11:54:40.912Z,98854.00
2022-11-10T11:57:22.014Z,98855.00
2022-11-10T12:00:18.203Z,98863.00
2022-11-10T12:03:20.972Z,98861.00
2022-11-10T12:06:42.451Z,98867.00
2022-11-10T12:09:48.128Z,98865.00
2022-11-10T12:13:13.409Z,98876.00
2022-11-10T12:16:08.740Z,98882.00
2022-11-10T12:18:58.136Z,98886.00
2022-11-10T12:21:53.620Z,98895.00
2022-11-10T12:25:07.052Z,98896.00
2022-11-10T12:27:45.988Z,98898.00
2022-11-10T12:30:19.811Z,98899.00
2022-11-10T12:33:06.466Z,98905.00
2022-11-10T12:35:42.395Z,98912.00
2022-11-10T12:38:44.346Z,98914.00
2022-11-10T12:41:22.623Z,98921.00
2022-11-10T12:44:20.392Z,98924.00
2022-11-10T12:46:57.033Z,98924.00
2022-11-10T12:49:56.299Z,98936.00
2022-11-10T12:52:41.778Z,98937.00
2022-11-10T12:55:15.989Z,98935.00
2022-11-10T12:57:46.800Z,98945.00
2022-11-10T13:00:59.264Z,98947.00
2022-11-10T13:03:39.611Z,98945.00
2022-11-10T13:06:33.646Z,98956.00
2022-11-10T13:09:02.896Z,98951.00
2022-11-10T13:11:42.158Z,98954.00
2022-11-10T13:14:31.637Z,98961.00
2022-11-10T13:17:01.466Z,98968.00
2022-11-10T13:19:31.517Z,98965.00
2022-11-10T13:22:04.889Z,98969.00
2022-11-10T13:24:45.225Z,98970.00
2022-11-10T13:27:47.478Z,98967.00
2022-11-10T13:30:42.742Z,98961.00
2022-11-10T13:33:27.173Z,98966.00
2022-11-10T13:35:58.528Z,98968.00
2022-11-10T13:38:42.886Z,98959.00
2022-11-10T13:41:34.589Z,98966.00
2022-11-10T13:44:04.685Z,98968.00
2022-11-10T13:46:55.180Z,98968.00
2022-11-10T13:50:01.261Z,98966.00
2022-11-10T13:53:03.410Z,98971.00
2022-11-10T13:56:00.049Z,98975.00
2022-11-10T13:58:35.884Z,98975.00
2022-11-10T14:01:34.820Z,98977.00
2022-11-10T14:04:05.831Z,98976.00
2022-11-10T14:06:49.764Z,98977.00
2022-11-10T14:09:40.962Z,98973.00
2022-11-10T14:12:51.702Z,98979.00
2022-11-10T14:15:51.440Z,98973.00
2022-11-10T14:18:40.137Z,98974.00
2022-11-10T14:21:30.283Z,98974.00
2022-11-10T14:24:22.775Z,98971.00
2022-11-10T14:26:58.173Z,98973.00
2022-11-10T14:29:36.148Z,98973.00
2022-11-10T14:32:23.614Z,98973.00
2022-11-10T14:34:56.541Z,98974.00
2022-11-10T14:37:30.188Z,98978.00
2022-11-10T14:40:03.886Z,98985.00
2022-11-10T14:42:37.244Z,98985.00
2022-11-10T14:45:23.641Z,98985.00
2022-11-10T14:48:01.550Z,98977.00
2022-11-10T14:50:33.951Z,98978.00
2022-11-10T14:53:24.964Z,98981.00
2022-11-10T14:55:55.201Z,98979.00
2022-11-10T14:58:38.078Z,98977.00
2022-11-10T15:01:21.830Z,98975.00
2022-11-10T15:03:51.497Z,98984.00
2022-11-10T15:06:22.632Z,98977.00
2022-11-10T15:08:51.803Z,98982.00
2022-11-10T15:12:02.382Z,98986.00
2022-11-10T15:14:38.066Z,98986.00
2022-11-10T15:17:11.518Z,98992.00
2022-11-10T15:19:48.019Z,98989.00
2022-11-10T15:22:37.312Z,98990.00
2022-11-10T15:25:23.467Z,98999.00
2022-11-10T15:28:06.477Z,98993.00
2022-11-10T15:30:36.249Z,98987.00
2022-11-10T15:33:12.352Z,98985.00
2022-11-10T15:35:41.497Z,98982.00
2022-11-10T15:38:22.367Z,98983.00
2022-11-10T15:41:05.314Z,98988.00
2022-11-10T15:43:34.517Z,98990.00
2022-11-10T15:46:17.706Z,98985.00
2022-11-10T15:48:51.742Z,98985.00
2022-11-10T15:51:26.109Z,98977.00
2022-11-10T15:53:56.347Z,98987.00
2022-11-10T15:56:26.867Z,98985.00
2022-11-10T15:59:01.638Z,98976.00
2022-11-10T16:01:32.521Z,98981.00
2022-11-10T16:04:01.765Z,98979.00
2022-11-10T16:06:31.509Z,98986.00
2022-11-10T16:09:00.693Z,98975.00
2022-11-10T16:11:32.592Z,98973.00
2022-11-10T16:14:04.950Z,98978.00
2022-11-10T16:16:34.238Z,98976.00
2022-11-10T16:19:03.294Z,98980.00
2022-11-10T16:21:32.373Z,98971.00
2022-11-10T16:24:01.413Z,98968.00
2022-11-10T16:26:34.617Z,98977.00
2022-11-10T16:29:03.982Z,98978.00
2022-11-10T16:31:35.905Z,98979.00
2022-11-10T16:34:05.021Z,98976.00
2022-11-10T16:36:35.802Z,98970.00
2022-11-10T16:39:13.191Z,98974.00
2022-11-10T16:41:45.294Z,98970.00
2022-11-10T16:44:18.347Z,98968.00
2022-11-10T16:46:55.229Z,98972.00
2022-11-10T16:49:36.120Z,98970.00
2022-11-10T16:52:16.150Z,98971.00
2022-11-10T16:54:45.303Z,98976.00
2022-11-10T16:57:18.923Z,99006.00
2022-11-10T16:59:48.077Z,98995.00
2022-11-10T17:02:31.328Z,99005.00
2022-11-10T17:05:00.739Z,99009.00
2022-11-10T17:07:31.265Z,98993.00
2022-11-10T17:10:02.583Z,98999.00
2022-11-10T17:12:31.654Z,98998.00
2022-11-10T17:15:00.755Z,98995.00
2022-11-10T17:17:29.851Z,98995.00
2022-11-10T17:19:59.963Z,98985.00
2022-11-10T17:22:37.312Z,98992.00
2022-11-10T17:25:11.869Z,98985.00
2022-11-10T17:27:40.906Z,98980.00
2022-11-10T17:30:13.986Z,98981.00
2022-11-10T17:33:04.319Z,98976.00
2022-11-10T17:35:36.300Z,98976.00
2022-11-10T17:38:12.796Z,98971.00
2022-11-10T17:40:44.018Z,98970.00
2022-11-10T17:43:14.579Z,98968.00
2022-11-10T17:45:43.731Z,98970.00
2022-11-10T17:48:13.102Z,98965.00
2022-11-10T17:50:44.920Z,98968.00
2022-11-10T17:53:24.693Z,98964.00
2022-11-10T17:55:54.164Z,98957.00
2022-11-10T17:58:23.270Z,98956.00
2022-11-10T18:00:52.613Z,98949.00
2022-11-10T18:03:24.249Z,98954.00
2022-11-10T18:05:53.819Z,98966.00
2022-11-10T18:08:23.023Z,98963.00
2022-11-10T18:10:54.378Z,98959.00
2022-11-10T18:13:23.861Z,98956.00
2022-11-10T18:15:55.320Z,98965.00
2022-11-10T18:18:24.382Z,98961.00
2022-11-10T18:20:53.815Z,98956.00
2022-11-10T18:23:23.179Z,98960.00
2022-11-10T18:25:53.123Z,98947.00
2022-11-10T18:28:22.591Z,98953.00
2022-11-10T18:30:51.650Z,98951.00
2022-11-10T18:33:21.187Z,98961.00
2022-11-10T18:35:50.571Z,98953.00
2022-11-10T18:38:19.624Z,98960.00
2022-11-10T18:40:49.031Z,98959.00
2022-11-10T18:43:18.150Z,98964.00
2022-11-10T18:45:47.235Z,98962.00
2022-11-10T18:48:16.278Z,98959.00
2022-11-10T18:50:45.521Z,98957.00
2022-11-10T18:53:14.579Z,98950.00
2022-11-10T18:55:45.687Z,98956.00
2022-11-10T18:58:14.934Z,98952.00
2022-11-10T19:00:43.982Z,98953.00
2022-11-10T19:03:14.938Z,98944.00
2022-11-10T19:05:44.035Z,98943.00
2022-11-10T19:08:13.278Z,98937.00
2022-11-10T19:10:45.243Z,98934.00
2022-11-10T19:13:16.237Z,98927.00
2022-11-10T19:15:45.295Z,98925.00
2022-11-10T19:18:14.645Z,98923.00
2022-11-10T19:20:44.290Z,98927.00
2022-11-10T19:23:13.295Z,98923.00
2022-11-10T19:25:42.463Z,98922.00
2022-11-10T19:28:12.598Z,98917.00
2022-11-10T19:30:41.849Z,98920.00
2022-11-10T19:33:10.989Z,98924.00
2022-11-10T19:35:43.778Z,98917.00
2022-11-10T19:38:12.907Z,98912.00
2022-11-10T19:40:43.504Z,98919.00
2022-11-10T19:43:12.581Z,98908.00
2022-11-10T19:45:43.138Z,98906.00
2022-11-10T19:48:12.318Z,98899.00
2022-11-10T19:50:46.553Z,98906.00
2022-11-10T19:53:18.499Z,98904.00
2022-11-10T19:55:47.661Z,98899.00
2022-11-10T19:58:16.717Z,98895.00
2022-11-10T20:00:51.824Z,98898.00
2022-11-10T20:03:21.100Z,98890.00
2022-11-10T20:06:02.652Z,98896.00
2022-11-10T20:08:32.710Z,98891.00
2022-11-10T20:11:17.387Z,98891.00
2022-11-10T20:13:48.848Z,98896.00
2022-11-10T20:16:21.177Z,98884.00
2022-11-10T20:18:50.338Z,98892.00
2022-11-10T20:21:24.465Z,98898.00
2022-11-10T20:23:57.563Z,98889.00
2022-11-10T20:26:27.037Z,98890.00
2022-11-10T20:28:56.826Z,98882.00
2022-11-10T20:31:27.686Z,98875.00
2022-11-10T20:33:57.838Z,98875.00
2022-11-10T20:36:32.706Z,98871.00
2022-11-10T20:39:01.884Z,98872.00
2022-11-10T20:41:34.366Z,98877.00
2022-11-10T20:44:03.524Z,98874.00
2022-11-10T20:46:53.356Z,98878.00
2022-11-10T20:49:21.693Z,98878.00
2022-11-10T20:51:50.746Z,98882.00
2022-11-10T20:54:19.933Z,98883.00
2022-11-10T20:56:49.041Z,98882.00
2022-11-10T20:59:18.152Z,98894.00
2022-11-10T21:01:47.617Z,98890.00
2022-11-10T21:04:16.802Z,98880.00
2022-11-10T21:06:46.236Z,98890.00
2022-11-10T21:09:15.501Z,98891.00
2022-11-10T21:12:02.785Z,98886.00
2022-11-10T21:14:31.841Z,98882.00
2022-11-10T21:17:00.932Z,98877.00
2022-11-10T21:19:34.712Z,98882.00
2022-11-10T21:22:04.302Z,98882.00
2022-11-10T21:24:33.559Z,98877.00
2022-11-10T21:27:03.704Z,98882.00
2022-11-10T21:29:32.742Z,98888.00
2022-11-10T21:32:01.872Z,98879.00
2022-11-10T21:34:31.006Z,98881.00
2022-11-10T21:37:00.053Z,98887.00
2022-11-10T21:39:29.148Z,98887.00
2022-11-10T21:41:58.288Z,98886.00
2022-11-10T21:44:27.554Z,98890.00
2022-11-10T21:46:56.696Z,98890.00
2022-11-10T21:49:25.788Z,98903.00
2022-11-10T21:51:55.017Z,98901.00
2022-11-10T21:54:24.174Z,98906.00
2022-11-10T21:56:53.255Z,98909.00
2022-11-10T21:59:22.356Z,98908.00
2022-11-10T22:01:51.525Z,98916.00
2022-11-10T22:04:20.637Z,98918.00
2022-11-10T22:07:08.390Z,98923.00
2022-11-10T22:09:55.982Z,98919.00
2022-11-10T22:12:47.859Z,98933.00
2022-11-10T22:15:35.645Z,98923.00
2022-11-10T22:18:23.257Z,98924.00
2022-11-10T22:20:52.564Z,98932.00
2022-11-10T22:23:41.426Z,98926.00
2022-11-10T22:26:13.058Z,98930.00
2022-11-10T22:28:42.693Z,98931.00
2022-11-10T22:31:13.653Z,98929.00
2022-11-10T22:33:44.444Z,98933.00
2022-11-10T22:36:18.688Z,98941.00
2022-11-10T22:38:47.779Z,98945.00
2022-11-10T22:41:36.637Z,98940.00
2022-11-10T22:44:06.302Z,98942.00
2022-11-10T22:46:51.944Z,98940.00
2022-11-10T22:49:24.988Z,98950.00
2022-11-10T22:51:58.319Z,98953.00
2022-11-10T22:54:27.434Z,98950.00
2022-11-10T22:56:56.468Z,98954.00
2022-11-10T22:59:25.514Z,98965.00
2022-11-10T23:01:54.900Z,98966.00
2022-11-10T23:04:24.105Z,98975.00
2022-11-10T23:06:53.212Z,98969.00
2022-11-10T23:09:22.310Z,98975.00
2022-11-10T23:11:51.356Z,98975.00
2022-11-10T23:14:20.438Z,98983.00
2022-11-10T23:16:49.620Z,98988.00
2022-11-10T23:19:18.723Z,98990.00
2022-11-10T23:21:47.797Z,98999.00
2022-11-10T23:24:19.277Z,99002.00
2022-11-10T23:26:48.519Z,98998.00
2022-11-10T23:29:17.754Z,99010.00
2022-11-10T23:31:46.883Z,99014.00
2022-11-10T23:34:15.945Z,99006.00
2022-11-10T23:36:44.986Z,99018.00
2022-11-10T23:39:14.665Z,99020.00
2022-11-10T23:41:43.730Z,99024.00
2022-11-10T23:44:13.019Z,99027.00
2022-11-10T23:46:42.098Z,99022.00
2022-11-10T23:49:11.165Z,99025.00
2022-11-10T23:51:40.298Z,99033.00
2022-11-10T23:54:09.385Z,99034.00
2022-11-10T23:56:38.566Z,99037.00
2022-11-10T23:59:07.660Z,99038.00
